»·PEaware :: DCM2499 KVGT-F70

DCM2499 :: KVGT-F70

FLIGHT INFORMATION

Flight Status: Arrived
Operator: DotCom
More flights by this operator :: More flights under this callsign
Pilot: Alec D. (17934)
Aircraft: GATES LEARJET LEARJET 35/36
(LJ35)
More flights by this aircraft type
Origin: KVGT North Las Vegas
United States
Destination: F70 French Valley
United States
More flights between these airports :: More routes between these airports
Route: +NOTWN5 LAS BOACH V283 HDF
File this flight plan on PilotEdge
Remarks:
Altitude:
(Current/Filed)
22,000ft
Speed:
(Current/Filed)
425kts
Departed: 12-Apr-19 01:18 PM
Arrived: 12-Apr-19 01:55 PM
Distance/Time
Traveled:
185nm/0:37
Distance/Time
To Go:
Arrived

Flight Plot

Page will automatically refresh every two minutes.

Flight plan parsing failed; only flown route is shown


Map Options




Map Legend


Flown Route
Filed Route
Departure Airport
Arrival Airport
Navaid (VOR, NDB)
Fix

Horizontal Profiles

Position Reports

Time Latitude Longitude Heading Altitude Ground
Speed
12-Apr-19 12:39 36.209078 -115.198693 226 2207ft 0kts
12-Apr-19 12:40 36.209078 -115.198693 226 2207ft 0kts
12-Apr-19 12:41 36.209078 -115.198693 226 2207ft 0kts
12-Apr-19 12:42 36.209078 -115.198693 226 2207ft 0kts
12-Apr-19 12:43 36.209078 -115.198693 226 2207ft 0kts
12-Apr-19 12:44 36.209078 -115.198693 226 2207ft 0kts
12-Apr-19 12:45 36.209078 -115.198693 226 2207ft 0kts
12-Apr-19 12:46 36.209078 -115.198693 226 2207ft 0kts
12-Apr-19 12:47 36.209078 -115.198693 226 2207ft 0kts
12-Apr-19 12:48 36.209078 -115.198693 226 2207ft 0kts
12-Apr-19 12:50 36.209078 -115.198693 226 2207ft 0kts
12-Apr-19 12:51 36.209078 -115.198693 226 2207ft 0kts
12-Apr-19 12:52 36.209078 -115.198693 226 2207ft 0kts
12-Apr-19 12:53 36.209078 -115.198693 226 2207ft 0kts
12-Apr-19 12:54 36.209078 -115.198693 226 2207ft 0kts
12-Apr-19 12:55 36.209078 -115.198693 226 2207ft 0kts
12-Apr-19 12:56 36.209078 -115.198693 226 2207ft 0kts
12-Apr-19 12:57 36.209078 -115.198693 226 2207ft 0kts
12-Apr-19 12:58 36.209078 -115.198693 226 2207ft 0kts
12-Apr-19 12:59 36.209078 -115.198693 226 2207ft 0kts
12-Apr-19 13:00 36.209078 -115.198693 226 2207ft 0kts
12-Apr-19 13:01 36.209078 -115.198693 226 2207ft 0kts
12-Apr-19 13:02 36.209078 -115.198693 226 2207ft 0kts
12-Apr-19 13:03 36.209078 -115.198693 226 2207ft 0kts
12-Apr-19 13:04 36.209078 -115.198693 226 2207ft 0kts
12-Apr-19 13:05 36.209078 -115.198693 226 2207ft 0kts
12-Apr-19 13:06 36.209078 -115.198693 226 2207ft 0kts
12-Apr-19 13:07 36.209078 -115.198693 226 2207ft 0kts
12-Apr-19 13:08 36.209078 -115.198693 226 2207ft 0kts
12-Apr-19 13:09 36.209078 -115.198693 226 2207ft 0kts
12-Apr-19 13:10 36.209078 -115.198693 226 2207ft 0kts
12-Apr-19 13:11 36.209071 -115.198705 232 2207ft 0kts
12-Apr-19 13:12 36.209567 -115.198237 99 2207ft 7kts
12-Apr-19 13:12 36.211143 -115.199628 313 2207ft 9kts
12-Apr-19 13:14 36.212830 -115.202198 270 2207ft 5kts
12-Apr-19 13:14 36.212840 -115.203039 290 2207ft 0kts
12-Apr-19 13:16 36.212841 -115.203042 290 2207ft 0kts
12-Apr-19 13:17 36.213276 -115.203084 63 2207ft 5kts
12-Apr-19 13:17 36.213615 -115.184313 89 2468ft 156kts
12-Apr-19 13:19 36.172085 -115.150911 208 4943ft 222kts
12-Apr-19 13:19 36.128219 -115.187050 193 6927ft 247kts
12-Apr-19 13:21 36.054705 -115.140027 152 10441ft 285kts
12-Apr-19 13:21 35.988682 -115.148813 218 13278ft 315kts
12-Apr-19 13:22 35.920287 -115.218128 195 16886ft 340kts
12-Apr-19 13:24 35.804535 -115.250879 197 18949ft 395kts
12-Apr-19 13:24 35.715242 -115.282191 198 19178ft 390kts
12-Apr-19 13:25 35.630104 -115.358979 237 21624ft 403kts
12-Apr-19 13:26 35.551172 -115.467562 233 21876ft 435kts
12-Apr-19 13:27 35.468866 -115.576473 233 21874ft 434kts
12-Apr-19 13:28 35.387024 -115.685533 234 21876ft 434kts
12-Apr-19 13:29 35.309652 -115.788507 234 21881ft 435kts
12-Apr-19 13:30 35.227551 -115.897464 234 21889ft 435kts
12-Apr-19 13:31 35.145565 -116.005947 234 21884ft 435kts
12-Apr-19 13:32 35.062256 -116.115794 235 21883ft 444kts
12-Apr-19 13:33 34.977693 -116.226959 235 21894ft 451kts
12-Apr-19 13:34 34.891704 -116.339589 235 21903ft 455kts
12-Apr-19 13:35 34.805204 -116.452555 235 21895ft 458kts
12-Apr-19 13:36 34.715782 -116.563891 233 21908ft 461kts
12-Apr-19 13:37 34.624847 -116.674998 233 21285ft 461kts
12-Apr-19 13:38 34.539284 -116.779404 233 19087ft 417kts
12-Apr-19 13:39 34.460051 -116.876127 232 16887ft 391kts
12-Apr-19 13:40 34.386215 -116.966150 230 15166ft 369kts
12-Apr-19 13:41 34.314808 -117.052872 229 13464ft 358kts
12-Apr-19 13:42 34.236693 -117.117773 195 13092ft 336kts
12-Apr-19 13:43 34.146481 -117.125694 171 13023ft 320kts
12-Apr-19 13:44 34.058273 -117.094431 160 11100ft 335kts
12-Apr-19 13:45 33.974579 -117.060381 160 9102ft 300kts
12-Apr-19 13:46 33.898778 -117.029109 160 7093ft 278kts
12-Apr-19 13:47 33.829220 -117.000066 160 6001ft 238kts
12-Apr-19 13:48 33.767762 -116.978857 188 6012ft 236kts
12-Apr-19 13:49 33.721884 -117.017329 227 5380ft 184kts
12-Apr-19 13:50 33.689911 -117.062048 232 3785ft 170kts
12-Apr-19 13:51 33.658357 -117.098477 220 2908ft 151kts
12-Apr-19 13:52 33.621316 -117.116209 195 2214ft 140kts
12-Apr-19 13:53 33.585493 -117.125507 195 1420ft 129kts
12-Apr-19 13:54 33.573201 -117.128734 192 1353ft 1kts
12-Apr-19 13:55 33.570602 -117.129435 192 1353ft 5kts
12-Apr-19 13:56 33.571112 -117.130080 11 1353ft 9kts
12-Apr-19 13:57 33.573206 -117.129897 7 1353ft 0kts
12-Apr-19 13:58 33.573207 -117.129896 7 1353ft 0kts

Navigation Log

Ident Type
Flight plan parsing failed, navigation log unavailable